Time;durP1;ratioP1;P1;durP2;ratioP2;P2;SDS_P1;SDS_P2;PMS_P1;PMS_P2;Temp;Humidity;BMP_temperature;BMP_pressure;BME280_temperature;BME280_humidity;BME280_pressure;Samples;Min_cycle;Max_cycle;Signal;HPM_P1;HPM_P2
2021/01/28 00:00:37;;;;;;;2.20;1.75;;;16.60;41.30;;;;;;6133370;23;20209;-83
2021/01/28 00:03:05;;;;;;;2.50;1.80;;;16.60;41.20;;;;;;6133868;23;20139;-83
2021/01/28 00:05:40;;;;;;;2.70;1.80;;;16.60;41.50;;;;;;6134082;23;20150;-86
2021/01/28 00:08:19;;;;;;;2.35;1.67;;;16.60;41.50;;;;;;6156997;23;20193;-83
2021/01/28 00:10:56;;;;;;;1.92;1.70;;;16.60;41.80;;;;;;6157614;23;20213;-83
2021/01/28 00:13:23;;;;;;;3.05;1.63;;;16.60;41.30;;;;;;6157173;23;20563;-82
2021/01/28 00:15:49;;;;;;;2.47;1.85;;;16.60;41.50;;;;;;6157315;23;20170;-83
2021/01/28 00:18:17;;;;;;;1.92;1.73;;;16.60;41.30;;;;;;6156946;23;20131;-82
2021/01/28 00:20:46;;;;;;;2.20;1.85;;;16.60;41.30;;;;;;6132734;23;20139;-83
2021/01/28 00:23:21;;;;;;;2.38;2.13;;;16.60;41.30;;;;;;6157899;23;20139;-82
2021/01/28 00:25:48;;;;;;;2.42;1.75;;;16.60;41.30;;;;;;6156900;23;20147;-82
2021/01/28 00:28:16;;;;;;;1.95;1.75;;;16.60;41.20;;;;;;6156783;23;20143;-83
2021/01/28 00:30:46;;;;;;;1.98;1.75;;;16.60;41.30;;;;;;6157266;23;20139;-83
2021/01/28 00:33:23;;;;;;;2.33;1.77;;;16.60;41.30;;;;;;6158518;23;20143;-82
2021/01/28 00:36:03;;;;;;;1.95;1.70;;;16.60;41.40;;;;;;6157288;23;20175;-82
2021/01/28 00:38:37;;;;;;;2.33;1.90;;;16.50;41.40;;;;;;6183310;23;20131;-83
2021/01/28 00:41:05;;;;;;;1.77;1.55;;;16.60;41.40;;;;;;6182996;23;20157;-83
2021/01/28 00:43:38;;;;;;;2.28;1.50;;;16.60;41.50;;;;;;6181990;23;20201;-83
2021/01/28 00:46:05;;;;;;;2.00;1.80;;;16.60;41.30;;;;;;6180660;23;20174;-82
2021/01/28 00:48:33;;;;;;;4.93;2.13;;;16.60;41.40;;;;;;6157842;23;20131;-83
2021/01/28 00:51:05;;;;;;;2.20;1.65;;;16.60;41.20;;;;;;6132639;23;20174;-80
2021/01/28 00:53:34;;;;;;;2.30;1.65;;;16.60;41.70;;;;;;6156830;23;20139;-84
2021/01/28 00:56:11;;;;;;;2.63;1.77;;;16.60;41.50;;;;;;6156774;23;20197;-82
2021/01/28 00:58:41;;;;;;;3.13;2.03;;;16.50;41.60;;;;;;6156666;23;20173;-83
2021/01/28 01:01:15;;;;;;;2.20;1.77;;;16.50;41.80;;;;;;6180358;23;20158;-82
2021/01/28 01:03:42;;;;;;;2.42;2.05;;;16.50;41.50;;;;;;6156563;23;20149;-83
2021/01/28 01:06:16;;;;;;;2.08;1.70;;;16.50;41.60;;;;;;6207607;23;20119;-82
2021/01/28 01:08:54;;;;;;;1.75;1.58;;;16.50;41.60;;;;;;6180921;23;20134;-83
2021/01/28 01:11:20;;;;;;;1.90;1.58;;;16.50;41.70;;;;;;6155730;23;20526;-83
2021/01/28 01:13:46;;;;;;;2.88;1.77;;;16.50;41.80;;;;;;6131871;23;20166;-79
2021/01/28 01:16:12;;;;;;;2.08;1.80;;;16.40;41.60;;;;;;6131681;23;20175;-82
2021/01/28 01:18:43;;;;;;;2.30;1.80;;;16.50;41.90;;;;;;6132635;23;20143;-82
2021/01/28 01:21:15;;;;;;;3.13;1.80;;;16.60;41.70;;;;;;6156006;23;20149;-82
2021/01/28 01:23:46;;;;;;;2.47;2.00;;;16.50;41.50;;;;;;6131315;23;20146;-82
2021/01/28 01:26:18;;;;;;;2.30;1.63;;;16.50;41.70;;;;;;6155414;23;20142;-83
2021/01/28 01:28:46;;;;;;;1.80;1.60;;;16.50;41.80;;;;;;6155184;23;20598;-82
2021/01/28 01:31:25;;;;;;;3.05;1.75;;;16.50;41.90;;;;;;6155490;23;20131;-83
2021/01/28 01:33:55;;;;;;;2.50;1.80;;;16.50;41.80;;;;;;6155411;23;20146;-83
2021/01/28 01:36:31;;;;;;;2.47;1.80;;;16.50;41.70;;;;;;6155101;23;20178;-83
2021/01/28 01:39:01;;;;;;;2.03;1.70;;;16.50;41.50;;;;;;6155993;23;20177;-83
2021/01/28 01:41:31;;;;;;;2.97;1.67;;;16.50;41.40;;;;;;6155503;23;20233;-84
2021/01/28 01:43:58;;;;;;;1.90;1.70;;;16.50;41.40;;;;;;6180181;23;20151;-83
2021/01/28 01:46:26;;;;;;;2.33;1.83;;;16.60;41.60;;;;;;6131612;23;20155;-83
2021/01/28 01:48:54;;;;;;;1.80;1.60;;;16.60;41.90;;;;;;6154999;23;20169;-83
2021/01/28 01:51:23;;;;;;;1.92;1.70;;;16.50;41.70;;;;;;6155110;23;20143;-83
2021/01/28 01:53:59;;;;;;;2.72;2.08;;;16.50;41.60;;;;;;6205170;23;20151;-82
2021/01/28 01:56:39;;;;;;;2.55;1.77;;;16.60;41.50;;;;;;6130600;23;20185;-83
2021/01/28 01:59:11;;;;;;;2.10;1.80;;;16.50;41.80;;;;;;6131301;23;20221;-83
2021/01/28 02:01:41;;;;;;;1.75;1.52;;;16.40;41.70;;;;;;6130991;23;20177;-84
2021/01/28 02:04:09;;;;;;;2.67;1.77;;;16.50;41.60;;;;;;6131520;23;20142;-82
2021/01/28 02:06:37;;;;;;;2.50;1.90;;;16.50;41.70;;;;;;6131190;23;20237;-83
2021/01/28 02:09:04;;;;;;;1.80;1.60;;;16.50;41.70;;;;;;6154502;23;20166;-83
2021/01/28 02:11:30;;;;;;;1.88;1.60;;;16.50;42.00;;;;;;6149905;23;20195;-85
2021/01/28 02:13:58;;;;;;;2.00;1.80;;;16.50;41.50;;;;;;6126028;23;20154;-83
2021/01/28 02:16:31;;;;;;;1.85;1.65;;;16.50;41.60;;;;;;6126291;23;20191;-83
2021/01/28 02:18:59;;;;;;;2.45;1.85;;;16.50;41.60;;;;;;6125966;23;20163;-83
2021/01/28 02:21:52;;;;;;;1.83;1.63;;;16.50;41.80;;;;;;6149496;23;20642;-84
2021/01/28 02:24:38;;;;;;;2.42;1.60;;;16.50;41.70;;;;;;6147124;23;20146;-83
2021/01/28 02:27:14;;;;;;;2.50;1.80;;;16.50;41.70;;;;;;6150064;23;20143;-84
2021/01/28 02:29:42;;;;;;;2.40;1.77;;;16.50;41.80;;;;;;6150158;23;20138;-84
2021/01/28 02:32:11;;;;;;;2.67;1.80;;;16.50;41.60;;;;;;6125610;23;20203;-84
2021/01/28 02:34:37;;;;;;;2.15;1.58;;;16.50;42.00;;;;;;6149888;23;20142;-82
2021/01/28 02:37:14;;;;;;;2.65;1.60;;;16.50;41.80;;;;;;6125981;23;20579;-83
2021/01/28 02:39:41;;;;;;;2.70;1.75;;;16.50;41.70;;;;;;6150176;23;20143;-83
2021/01/28 02:42:19;;;;;;;2.83;1.75;;;16.50;41.80;;;;;;6174149;23;20635;-83
2021/01/28 02:45:06;;;;;;;2.38;1.75;;;16.50;41.70;;;;;;6150000;23;20174;-83
2021/01/28 02:47:54;;;;;;;2.17;1.80;;;16.40;41.90;;;;;;6149419;23;20136;-85
2021/01/28 02:50:20;;;;;;;1.92;1.73;;;16.40;42.00;;;;;;6149535;23;20208;-83
2021/01/28 02:52:47;;;;;;;2.40;1.75;;;16.40;42.60;;;;;;6149304;23;20132;-83
2021/01/28 02:55:14;;;;;;;2.83;1.92;;;16.40;42.10;;;;;;6124987;23;20183;-83
2021/01/28 02:57:49;;;;;;;1.95;1.73;;;16.30;41.80;;;;;;6126839;23;20150;-84
2021/01/28 03:00:19;;;;;;;2.05;1.83;;;16.40;41.70;;;;;;6175809;23;20138;-83
2021/01/28 03:02:50;;;;;;;2.35;2.00;;;16.50;41.90;;;;;;6175810;23;20441;-83
2021/01/28 03:05:18;;;;;;;2.63;1.80;;;16.50;41.90;;;;;;6151659;23;20579;-84
2021/01/28 03:07:45;;;;;;;1.80;1.60;;;16.50;41.90;;;;;;6177117;23;20131;-83
2021/01/28 03:10:12;;;;;;;1.73;1.60;;;16.40;41.70;;;;;;6126411;23;20195;-82
2021/01/28 03:12:43;;;;;;;2.55;1.50;;;16.50;41.80;;;;;;6126651;23;20163;-84
2021/01/28 03:15:23;;;;;;;2.03;1.75;;;16.50;42.00;;;;;;6175302;23;20226;-83
2021/01/28 03:17:51;;;;;;;1.80;1.63;;;16.50;42.00;;;;;;6151819;23;20170;-83
2021/01/28 03:20:19;;;;;;;1.98;1.65;;;16.40;42.00;;;;;;6150591;23;20140;-83
2021/01/28 03:22:50;;;;;;;2.10;1.83;;;16.40;42.00;;;;;;6151140;23;20148;-83
2021/01/28 03:25:19;;;;;;;1.98;1.60;;;16.40;41.80;;;;;;6150868;23;20147;-83
2021/01/28 03:27:46;;;;;;;2.03;1.80;;;16.40;41.80;;;;;;6127170;23;20153;-82
2021/01/28 03:30:27;;;;;;;1.95;1.70;;;16.40;42.10;;;;;;6151268;23;20124;-84
2021/01/28 03:32:53;;;;;;;2.22;1.80;;;16.40;42.70;;;;;;6150945;23;20139;-83
2021/01/28 03:35:23;;;;;;;2.78;2.00;;;16.40;41.90;;;;;;6126099;23;20232;-83
2021/01/28 03:37:51;;;;;;;1.60;1.50;;;16.40;42.00;;;;;;6126627;23;20143;-83
2021/01/28 03:40:20;;;;;;;2.00;1.80;;;16.40;42.10;;;;;;6125558;23;20242;-82
2021/01/28 03:42:46;;;;;;;2.65;1.70;;;16.40;42.00;;;;;;6126507;23;20135;-83
2021/01/28 03:45:15;;;;;;;1.85;1.63;;;16.40;41.80;;;;;;6125690;23;20170;-83
2021/01/28 03:47:42;;;;;;;2.03;1.58;;;16.40;41.90;;;;;;6150823;23;20143;-82
2021/01/28 03:50:11;;;;;;;2.00;1.80;;;16.40;42.10;;;;;;6126287;23;20127;-83
2021/01/28 03:52:39;;;;;;;2.10;1.50;;;16.40;42.20;;;;;;6150041;23;20131;-83
2021/01/28 03:55:08;;;;;;;1.85;1.65;;;16.40;42.10;;;;;;6150373;23;20167;-83
2021/01/28 03:57:39;;;;;;;2.65;2.00;;;16.40;42.10;;;;;;6149987;23;20143;-83
2021/01/28 04:00:17;;;;;;;2.20;1.80;;;16.40;42.10;;;;;;6149905;23;20203;-83
2021/01/28 04:02:43;;;;;;;2.00;1.63;;;16.40;42.20;;;;;;6152225;23;20143;-83
2021/01/28 04:05:18;;;;;;;2.03;1.83;;;16.40;42.20;;;;;;6125627;23;20151;-83
2021/01/28 04:07:45;;;;;;;2.15;1.70;;;16.40;42.20;;;;;;6125929;23;20171;-84
2021/01/28 04:10:13;;;;;;;3.13;2.08;;;16.40;42.10;;;;;;6150332;23;20195;-82
2021/01/28 04:12:40;;;;;;;2.85;1.85;;;16.40;42.00;;;;;;6125869;23;20154;-83
2021/01/28 04:15:06;;;;;;;1.90;1.75;;;16.40;42.10;;;;;;6124904;23;20188;-83
2021/01/28 04:17:32;;;;;;;2.85;1.77;;;16.40;42.10;;;;;;6125619;23;20211;-85
2021/01/28 04:20:02;;;;;;;1.90;1.58;;;16.40;42.00;;;;;;6124996;23;20139;-83
2021/01/28 04:22:29;;;;;;;2.38;1.60;;;16.40;42.10;;;;;;6174605;23;20135;-84
2021/01/28 04:24:55;;;;;;;2.17;1.73;;;16.40;42.10;;;;;;6149560;23;20131;-82
2021/01/28 04:27:22;;;;;;;2.13;1.92;;;16.40;42.10;;;;;;6125100;23;20186;-83
2021/01/28 04:29:55;;;;;;;2.00;1.60;;;16.40;42.00;;;;;;6125100;23;20143;-83
2021/01/28 04:32:24;;;;;;;2.17;1.77;;;16.40;42.00;;;;;;6125119;23;20140;-83
2021/01/28 04:34:51;;;;;;;2.67;2.00;;;16.40;41.90;;;;;;6125221;23;20139;-83
2021/01/28 04:37:19;;;;;;;2.38;1.83;;;16.40;42.00;;;;;;6148173;23;20150;-83
2021/01/28 04:39:45;;;;;;;2.40;1.88;;;16.40;42.10;;;;;;6124824;23;20174;-83
2021/01/28 04:42:17;;;;;;;2.92;2.00;;;16.40;42.20;;;;;;6125241;23;20144;-83
2021/01/28 04:44:44;;;;;;;1.80;1.70;;;16.40;42.20;;;;;;6125078;23;20144;-83
2021/01/28 04:47:16;;;;;;;2.13;1.55;;;16.40;42.10;;;;;;6125260;23;20167;-83
2021/01/28 04:49:46;;;;;;;1.95;1.60;;;16.40;42.10;;;;;;6149490;23;20147;-84
2021/01/28 04:52:12;;;;;;;2.28;1.80;;;16.40;42.10;;;;;;6124447;23;20143;-83
2021/01/28 04:54:41;;;;;;;2.67;1.60;;;16.40;42.00;;;;;;6125253;23;20182;-83
2021/01/28 04:57:12;;;;;;;1.83;1.63;;;16.30;42.30;;;;;;6150165;23;20140;-83
2021/01/28 04:59:45;;;;;;;1.88;1.65;;;16.30;42.30;;;;;;6149472;23;20143;-82
2021/01/28 05:02:16;;;;;;;1.83;1.60;;;16.40;42.00;;;;;;6173469;23;20135;-83
2021/01/28 05:04:55;;;;;;;1.80;1.70;;;16.40;41.70;;;;;;6173829;23;20144;-83
2021/01/28 05:07:34;;;;;;;2.08;1.88;;;16.40;41.80;;;;;;6149502;23;20139;-82
2021/01/28 05:10:10;;;;;;;1.90;1.52;;;16.40;41.80;;;;;;6173976;23;20206;-80
2021/01/28 05:12:39;;;;;;;2.05;1.70;;;16.40;41.70;;;;;;6149277;23;20158;-82
2021/01/28 05:15:22;;;;;;;2.10;1.77;;;16.40;42.00;;;;;;6124902;23;20186;-83
2021/01/28 05:17:59;;;;;;;1.92;1.60;;;16.40;41.50;;;;;;6150491;23;20139;-82
2021/01/28 05:20:29;;;;;;;1.42;1.33;;;16.40;41.60;;;;;;6174881;23;20192;-82
2021/01/28 05:23:05;;;;;;;2.88;1.70;;;16.40;41.60;;;;;;6149954;23;20160;-83
2021/01/28 05:25:40;;;;;;;2.28;1.70;;;16.40;41.50;;;;;;6150458;23;20147;-83
2021/01/28 05:28:33;;;;;;;1.67;1.48;;;16.40;41.50;;;;;;6125087;23;20185;-82
2021/01/28 05:31:02;;;;;;;1.50;1.40;;;16.40;41.40;;;;;;6174035;23;20222;-82
2021/01/28 05:33:35;;;;;;;1.88;1.65;;;16.50;41.00;;;;;;6124897;23;20163;-82
2021/01/28 05:36:18;;;;;;;3.38;1.77;;;16.50;41.30;;;;;;6174121;23;20198;-82
2021/01/28 05:38:55;;;;;;;1.58;1.48;;;16.50;41.30;;;;;;6126129;23;20174;-82
2021/01/28 05:41:30;;;;;;;1.73;1.40;;;16.50;41.20;;;;;;6125088;23;20139;-82
2021/01/28 05:43:57;;;;;;;3.17;1.77;;;16.40;41.40;;;;;;6150286;23;20131;-83
2021/01/28 05:46:24;;;;;;;1.58;1.48;;;16.40;41.30;;;;;;6149818;23;20136;-82
2021/01/28 05:49:00;;;;;;;2.05;1.67;;;16.40;41.20;;;;;;6149211;23;20143;-83
2021/01/28 05:51:56;;;;;;;2.35;1.65;;;16.40;41.20;;;;;;6149805;23;20147;-83
2021/01/28 05:54:24;;;;;;;1.92;1.70;;;16.40;41.30;;;;;;6169460;23;20155;-83
2021/01/28 05:57:10;;;;;;;2.13;1.90;;;16.40;41.20;;;;;;6149297;23;20171;-82
2021/01/28 05:59:46;;;;;;;1.77;1.48;;;16.40;41.00;;;;;;6149318;23;20194;-84
2021/01/28 06:02:32;;;;;;;1.95;1.63;;;16.40;41.70;;;;;;6174021;23;20142;-82
2021/01/28 06:05:17;;;;;;;1.75;1.65;;;16.50;40.90;;;;;;6148098;23;20171;-82
2021/01/28 06:08:24;;;;;;;1.50;1.40;;;16.50;40.70;;;;;;6175322;23;20128;-81
2021/01/28 06:11:09;;;;;;;1.83;1.63;;;16.50;40.70;;;;;;6149084;23;20191;-82
2021/01/28 06:14:04;;;;;;;1.75;1.65;;;16.40;40.80;;;;;;6174748;23;20559;-81
2021/01/28 06:17:05;;;;;;;1.70;1.60;;;16.40;41.00;;;;;;6173235;23;20183;-82
2021/01/28 06:19:40;;;;;;;1.55;1.45;;;16.40;41.20;;;;;;6154194;23;20162;-82
2021/01/28 06:22:24;;;;;;;1.85;1.70;;;16.40;40.70;;;;;;6173450;23;20135;-81
2021/01/28 06:25:18;;;;;;;1.70;1.60;;;16.50;40.80;;;;;;6149149;23;20146;-82
2021/01/28 06:28:07;;;;;;;1.90;1.55;;;16.50;40.90;;;;;;6174073;23;20140;-82
2021/01/28 06:30:38;;;;;;;1.83;1.55;;;16.40;40.70;;;;;;6149216;23;20135;-82
2021/01/28 06:33:43;;;;;;;1.73;1.40;;;16.50;40.60;;;;;;6173568;23;20142;-82
2021/01/28 06:36:46;;;;;;;1.70;1.40;;;16.40;40.60;;;;;;6173221;23;20167;-83
2021/01/28 06:39:26;;;;;;;1.80;1.65;;;16.50;40.50;;;;;;6174007;23;20155;-83
2021/01/28 06:41:58;;;;;;;2.33;1.70;;;16.50;40.70;;;;;;6150380;23;20149;-81
2021/01/28 06:44:49;;;;;;;1.60;1.50;;;16.40;40.50;;;;;;6148040;23;20154;-83
2021/01/28 06:47:20;;;;;;;2.13;1.80;;;16.50;40.40;;;;;;6172923;23;20139;-79
2021/01/28 06:50:10;;;;;;;2.70;1.67;;;16.40;40.40;;;;;;6172430;23;20127;-82
2021/01/28 06:52:45;;;;;;;1.60;1.50;;;16.50;40.40;;;;;;6171038;23;20460;-83
2021/01/28 06:55:52;;;;;;;2.00;1.80;;;16.60;40.10;;;;;;6169642;23;20190;-83
2021/01/28 06:58:28;;;;;;;1.77;1.50;;;16.50;40.10;;;;;;6168571;23;20205;-84
2021/01/28 07:01:29;;;;;;;1.73;1.63;;;16.60;40.00;;;;;;6171614;23;20141;-82
2021/01/28 07:04:22;;;;;;;1.70;1.58;;;16.70;39.80;;;;;;6172663;23;20135;-83
2021/01/28 07:07:13;;;;;;;1.73;1.60;;;16.60;39.80;;;;;;6145667;23;20144;-83
2021/01/28 07:10:05;;;;;;;1.98;1.52;;;16.60;40.00;;;;;;6172130;23;20135;-81
2021/01/28 07:12:41;;;;;;;1.95;1.75;;;16.60;40.10;;;;;;6176688;23;20175;-82
2021/01/28 07:15:09;;;;;;;2.10;1.80;;;16.70;40.30;;;;;;6128594;23;20170;-83
2021/01/28 07:17:57;;;;;;;2.08;1.52;;;16.60;40.40;;;;;;6153573;23;20203;-81
2021/01/28 07:20:38;;;;;;;2.13;1.50;;;16.60;40.40;;;;;;6176912;23;20139;-83
2021/01/28 07:23:25;;;;;;;2.53;1.58;;;16.50;40.50;;;;;;6153632;23;20166;-84
2021/01/28 07:26:11;;;;;;;1.58;1.48;;;16.50;40.40;;;;;;6153516;23;20447;-80
2021/01/28 07:28:37;;;;;;;1.52;1.42;;;16.50;40.40;;;;;;6068249;23;20153;-83
2021/01/28 07:31:06;;;;;;;2.47;1.58;;;16.50;40.50;;;;;;6038627;23;20160;-81
2021/01/28 07:33:32;;;;;;;1.70;1.58;;;16.50;40.50;;;;;;6088090;23;20157;-81
2021/01/28 07:36:01;;;;;;;1.40;1.30;;;16.50;40.30;;;;;;6111086;23;20209;-83
2021/01/28 07:38:29;;;;;;;3.15;1.63;;;16.50;40.30;;;;;;6061763;23;20442;-80
2021/01/28 07:41:14;;;;;;;1.90;1.60;;;16.50;40.40;;;;;;6087519;23;20551;-81
2021/01/28 07:43:54;;;;;;;2.15;1.65;;;16.50;40.40;;;;;;6096092;23;20538;-77
2021/01/28 07:46:31;;;;;;;3.00;1.50;;;16.50;40.20;;;;;;6090654;23;20296;-79
2021/01/28 07:49:18;;;;;;;2.28;1.80;;;16.50;40.30;;;;;;6108723;23;20585;-79
2021/01/28 07:51:46;;;;;;;2.95;1.80;;;16.50;40.30;;;;;;6081471;23;20172;-79
2021/01/28 07:54:24;;;;;;;2.28;1.67;;;16.50;40.30;;;;;;6058472;23;20538;-78
2021/01/28 07:57:12;;;;;;;2.28;1.30;;;16.50;40.40;;;;;;6084497;23;20640;-81
2021/01/28 07:59:52;;;;;;;2.10;1.40;;;16.50;40.30;;;;;;6085720;23;20152;-80
2021/01/28 08:02:25;;;;;;;1.75;1.50;;;16.50;40.30;;;;;;6080636;23;20146;-81
2021/01/28 08:05:06;;;;;;;1.98;1.60;;;16.50;40.20;;;;;;6090461;23;20183;-77
2021/01/28 08:07:36;;;;;;;1.80;1.60;;;16.60;40.20;;;;;;6161074;23;20149;-78
2021/01/28 08:10:20;;;;;;;1.98;1.70;;;16.50;40.20;;;;;;6156099;23;20644;-76
2021/01/28 08:13:15;;;;;;;1.92;1.50;;;16.50;40.30;;;;;;6130570;23;20158;-76
2021/01/28 08:16:06;;;;;;;1.85;1.67;;;16.50;40.20;;;;;;6154980;23;20491;-78
2021/01/28 08:19:17;;;;;;;1.48;1.38;;;16.50;40.30;;;;;;6133921;23;20152;-79
2021/01/28 08:21:47;;;;;;;4.38;1.55;;;16.50;40.20;;;;;;6159161;23;20134;-78
2021/01/28 08:24:34;;;;;;;2.03;1.70;;;16.50;40.10;;;;;;6131473;23;20479;-77
2021/01/28 08:27:19;;;;;;;1.73;1.58;;;16.50;40.00;;;;;;6156209;23;20148;-78
2021/01/28 08:30:07;;;;;;;2.03;1.52;;;16.50;40.00;;;;;;6156125;23;20147;-78
2021/01/28 08:32:56;;;;;;;2.33;1.80;;;16.60;40.00;;;;;;6131034;23;20255;-78
2021/01/28 08:35:43;;;;;;;2.60;1.70;;;16.60;40.00;;;;;;6155944;23;20159;-77
2021/01/28 08:38:14;;;;;;;1.80;1.55;;;16.60;40.10;;;;;;6152318;23;20202;-78
2021/01/28 08:40:40;;;;;;;1.58;1.48;;;16.60;40.10;;;;;;6158598;23;20143;-79
2021/01/28 08:43:14;;;;;;;2.03;1.60;;;16.60;40.00;;;;;;6160084;23;20170;-77
2021/01/28 08:45:41;;;;;;;1.98;1.58;;;16.70;40.10;;;;;;6155881;23;20161;-78
2021/01/28 08:48:11;;;;;;;1.73;1.52;;;16.70;39.90;;;;;;6131839;23;20471;-80
2021/01/28 08:50:38;;;;;;;3.28;1.60;;;16.60;40.00;;;;;;6130387;23;20238;-77
2021/01/28 08:53:06;;;;;;;1.80;1.63;;;16.70;40.00;;;;;;6157042;23;20136;-76
2021/01/28 08:55:34;;;;;;;2.40;1.50;;;16.70;39.80;;;;;;6157047;23;20495;-79
2021/01/28 08:58:23;;;;;;;1.77;1.40;;;16.70;40.00;;;;;;6155579;23;20203;-78
2021/01/28 09:00:51;;;;;;;1.67;1.50;;;16.80;39.90;;;;;;6155908;23;20156;-75
2021/01/28 09:03:40;;;;;;;2.28;1.80;;;16.90;40.00;;;;;;6143217;23;20527;-80
2021/01/28 09:06:07;;;;;;;2.97;1.50;;;16.80;39.80;;;;;;6166085;23;20171;-79
2021/01/28 09:08:40;;;;;;;2.42;1.50;;;16.80;40.10;;;;;;6169487;23;20143;-81
2021/01/28 09:11:21;;;;;;;1.90;1.60;;;16.90;40.10;;;;;;6170311;23;20273;-80
2021/01/28 09:14:28;;;;;;;2.33;1.67;;;16.90;39.80;;;;;;6169256;23;20135;-79
2021/01/28 09:17:20;;;;;;;1.60;1.50;;;16.70;39.80;;;;;;6170452;23;20167;-77
2021/01/28 09:19:59;;;;;;;1.52;1.42;;;16.80;39.80;;;;;;6145114;23;20158;-79
2021/01/28 09:22:31;;;;;;;2.47;1.50;;;16.90;39.40;;;;;;6141210;23;20169;-78
2021/01/28 09:25:01;;;;;;;1.48;1.30;;;16.80;39.40;;;;;;6143760;23;20154;-78
2021/01/28 09:27:37;;;;;;;1.63;1.52;;;16.90;39.40;;;;;;6140793;23;20175;-79
2021/01/28 09:30:18;;;;;;;2.53;1.80;;;17.00;39.20;;;;;;6163098;23;20132;-79
2021/01/28 09:32:45;;;;;;;1.60;1.48;;;17.00;39.10;;;;;;6118643;23;20143;-78
2021/01/28 09:35:14;;;;;;;1.88;1.67;;;16.90;39.30;;;;;;6117580;23;20171;-77
2021/01/28 09:37:46;;;;;;;1.60;1.40;;;16.80;39.50;;;;;;6142688;23;20140;-81
2021/01/28 09:40:30;;;;;;;3.22;1.60;;;16.70;39.60;;;;;;6138243;23;20136;-78
2021/01/28 09:43:21;;;;;;;1.60;1.50;;;16.80;39.60;;;;;;6166688;23;20146;-79
2021/01/28 09:46:31;;;;;;;1.70;1.52;;;16.80;39.60;;;;;;6138926;23;20181;-81
2021/01/28 09:49:01;;;;;;;1.90;1.60;;;16.90;39.40;;;;;;6152723;23;20198;-77
2021/01/28 09:51:36;;;;;;;2.00;1.80;;;16.80;39.70;;;;;;6166004;23;20487;-77
2021/01/28 09:54:14;;;;;;;2.58;1.80;;;16.70;39.80;;;;;;6144311;23;20139;-79
2021/01/28 09:56:41;;;;;;;2.05;1.77;;;16.80;39.70;;;;;;6115238;23;20167;-80
2021/01/28 09:59:07;;;;;;;3.00;1.70;;;16.90;39.50;;;;;;6118293;23;20139;-78
2021/01/28 10:01:33;;;;;;;3.92;1.60;;;16.80;39.30;;;;;;6116964;23;20139;-76
2021/01/28 10:04:07;;;;;;;3.10;1.50;;;16.90;39.20;;;;;;6115741;23;20158;-78
2021/01/28 10:06:35;;;;;;;1.70;1.60;;;16.90;39.10;;;;;;6145878;23;20161;-78
2021/01/28 10:09:10;;;;;;;1.75;1.52;;;16.90;39.10;;;;;;6144654;23;20162;-78
2021/01/28 10:11:36;;;;;;;1.65;1.40;;;16.90;39.10;;;;;;6145532;23;20191;-78
2021/01/28 10:14:04;;;;;;;2.05;1.70;;;16.90;39.10;;;;;;6145360;23;20162;-78
2021/01/28 10:16:38;;;;;;;1.80;1.40;;;16.90;38.90;;;;;;6144035;23;20190;-77
2021/01/28 10:19:05;;;;;;;2.63;1.67;;;17.00;38.80;;;;;;6143774;23;20151;-79
2021/01/28 10:21:40;;;;;;;2.00;1.42;;;17.10;38.70;;;;;;6143378;23;20152;-77
2021/01/28 10:24:06;;;;;;;1.92;1.52;;;17.00;38.80;;;;;;6142573;23;20143;-78
2021/01/28 10:26:34;;;;;;;1.73;1.63;;;17.10;38.90;;;;;;6143515;23;20211;-81
2021/01/28 10:29:02;;;;;;;1.55;1.45;;;17.00;38.70;;;;;;6143225;23;20155;-78
2021/01/28 10:31:28;;;;;;;2.40;1.55;;;17.10;38.70;;;;;;6143486;23;20180;-80
2021/01/28 10:34:26;;;;;;;2.67;1.52;;;17.10;38.90;;;;;;6141841;23;20147;-78
2021/01/28 10:37:22;;;;;;;1.42;1.33;;;17.10;38.70;;;;;;6165594;23;20179;-78
2021/01/28 10:43:59;;;;;;;1.60;1.50;;;17.20;38.50;;;;;;5991452;24;20188;-79
2021/01/28 10:46:35;;;;;;;2.35;1.58;;;17.20;38.50;;;;;;5944279;24;20484;-78
2021/01/28 10:50:08;;;;;;;2.05;1.50;;;17.10;38.80;;;;;;5966912;24;20162;-81
2021/01/28 10:56:08;;;;;;;2.72;1.67;;;17.10;38.50;;;;;;5815037;24;20194;-79
2021/01/28 11:02:40;;;;;;;2.70;1.60;;;17.20;38.50;;;;;;5787740;24;20160;-79
2021/01/28 11:05:50;;;;;;;2.55;1.50;;;17.10;38.40;;;;;;5775731;24;20152;-78
2021/01/28 11:08:27;;;;;;;2.97;1.70;;;17.10;38.50;;;;;;5772270;24;20161;-78
2021/01/28 11:11:32;;;;;;;;;;;;;;;;;;;;;
2021/01/28 11:14:22;;;;;;;1.90;1.63;;;17.00;38.70;;;;;;5776292;24;20586;-81
2021/01/28 11:24:11;;;;;;;2.28;1.73;;;17.00;38.60;;;;;;5911762;24;20156;-80
2021/01/28 11:30:42;;;;;;;1.83;1.60;;;17.10;38.40;;;;;;5833569;24;20178;-81
2021/01/28 11:33:27;;;;;;;1.80;1.48;;;17.10;38.50;;;;;;5901377;24;20175;-80
2021/01/28 11:35:59;;;;;;;4.00;1.70;;;17.20;38.50;;;;;;5911820;24;20669;-79
2021/01/28 11:39:18;;;;;;;1.85;1.52;;;17.10;38.60;;;;;;5893361;24;20157;-80
2021/01/28 11:45:38;;;;;;;;;;;;;;;;;;;;;
2021/01/28 11:48:07;;;;;;;1.92;1.50;;;17.20;38.40;;;;;;5879288;24;20709;-81
2021/01/28 11:50:35;;;;;;;3.45;1.70;;;17.10;38.50;;;;;;5887114;24;20178;-80
2021/01/28 11:53:17;;;;;;;1.90;1.50;;;17.10;38.50;;;;;;5911489;24;20164;-81
2021/01/28 11:55:50;;;;;;;1.88;1.30;;;17.10;38.60;;;;;;5918404;24;20254;-81
2021/01/28 12:05:05;;;;;;;2.85;1.38;;;17.10;38.60;;;;;;5976593;24;20159;-81
2021/01/28 12:07:39;;;;;;;1.70;1.58;;;17.20;38.40;;;;;;6051296;23;20153;-80
2021/01/28 12:10:07;;;;;;;2.65;1.65;;;17.10;38.50;;;;;;6132242;23;20214;-79
2021/01/28 12:12:48;;;;;;;1.98;1.52;;;17.20;38.40;;;;;;6137792;23;20163;-81
2021/01/28 12:19:48;;;;;;;1.98;1.45;;;17.10;38.60;;;;;;6164919;23;20226;-80
2021/01/28 12:22:57;;;;;;;;;;;;;;;;;;;;;
2021/01/28 12:26:22;;;;;;;;;;;;;;;;;;;;;
2021/01/28 12:29:30;;;;;;;3.15;1.73;;;17.10;38.60;;;;;;6072715;23;20184;-79
2021/01/28 12:32:43;;;;;;;;;;;;;;;;;;;;;
2021/01/28 12:36:04;;;;;;;2.95;1.60;;;17.20;38.50;;;;;;6077367;23;20555;-79
2021/01/28 12:38:38;;;;;;;3.10;1.35;;;17.10;38.40;;;;;;6080379;23;20188;-79
2021/01/28 12:41:07;;;;;;;4.22;1.70;;;17.10;38.60;;;;;;6010612;23;20209;-80
2021/01/28 12:43:43;;;;;;;3.63;1.50;;;17.10;38.60;;;;;;6028380;23;20236;-77
2021/01/28 12:46:09;;;;;;;2.33;1.35;;;17.10;38.60;;;;;;6032309;23;20660;-79
2021/01/28 12:48:34;;;;;;;2.63;1.30;;;17.10;38.90;;;;;;6079803;23;20208;-78
2021/01/28 12:51:00;;;;;;;2.17;1.52;;;17.00;38.90;;;;;;6081109;23;20177;-79
2021/01/28 12:53:26;;;;;;;2.28;1.85;;;17.10;38.80;;;;;;6033434;23;20165;-81
2021/01/28 12:55:52;;;;;;;3.65;1.70;;;17.10;38.80;;;;;;6056276;23;20572;-77
2021/01/28 12:58:19;;;;;;;1.90;1.42;;;17.00;38.60;;;;;;6087130;23;20163;-78
2021/01/28 13:00:45;;;;;;;5.85;1.73;;;17.10;38.70;;;;;;6161637;23;20529;-76
2021/01/28 13:03:12;;;;;;;9.50;2.10;;;17.20;38.60;;;;;;6132954;23;20147;-78
2021/01/28 13:05:45;;;;;;;13.68;2.50;;;17.20;38.60;;;;;;6160854;23;20155;-77
2021/01/28 13:08:12;;;;;;;14.82;1.90;;;17.20;38.70;;;;;;6161909;23;20135;-78
2021/01/28 13:10:38;;;;;;;8.32;1.70;;;17.20;38.60;;;;;;6156554;23;20210;-79
2021/01/28 13:13:05;;;;;;;10.68;1.88;;;17.20;38.70;;;;;;6156964;23;20140;-76
2021/01/28 13:15:33;;;;;;;7.93;1.83;;;17.10;38.60;;;;;;6159390;23;20167;-80
2021/01/28 13:18:12;;;;;;;7.15;2.00;;;17.20;38.70;;;;;;6159382;23;20144;-79
2021/01/28 13:20:59;;;;;;;;;;;;;;;;;;;;;
2021/01/28 13:23:28;;;;;;;3.80;1.40;;;17.20;38.90;;;;;;6061928;23;20226;-77
2021/01/28 13:25:57;;;;;;;8.43;1.55;;;17.20;38.90;;;;;;6159397;23;20143;-78
2021/01/28 13:28:24;;;;;;;4.20;1.63;;;17.20;38.90;;;;;;6158416;23;20144;-77
2021/01/28 13:30:50;;;;;;;3.15;1.65;;;17.20;39.00;;;;;;6156063;23;20139;-79
2021/01/28 13:33:21;;;;;;;6.03;1.70;;;17.20;38.90;;;;;;6160077;23;20132;-77
2021/01/28 13:36:03;;;;;;;3.15;1.50;;;17.20;39.10;;;;;;6108406;23;20218;-79
2021/01/28 13:38:31;;;;;;;5.93;2.25;;;17.20;39.20;;;;;;6158816;23;20136;-80
2021/01/28 13:40:58;;;;;;;4.57;1.50;;;17.20;38.70;;;;;;6160313;23;20490;-78
2021/01/28 13:43:23;;;;;;;3.55;1.60;;;17.30;38.80;;;;;;6156547;23;20151;-78
2021/01/28 13:45:49;;;;;;;3.38;1.45;;;17.40;38.60;;;;;;6157846;23;20140;-78
2021/01/28 13:48:15;;;;;;;1.67;1.30;;;17.30;38.80;;;;;;6135784;23;20139;-79
2021/01/28 13:50:42;;;;;;;2.63;1.35;;;17.30;38.60;;;;;;6111352;23;20235;-79
2021/01/28 13:53:49;;;;;;;2.53;1.50;;;17.30;38.80;;;;;;6161423;23;20144;-81
2021/01/28 13:56:23;;;;;;;3.63;1.50;;;17.30;38.80;;;;;;6159743;23;20198;-79
2021/01/28 13:58:55;;;;;;;5.40;1.70;;;17.30;38.90;;;;;;6158734;23;20155;-78
2021/01/28 14:01:25;;;;;;;9.25;1.70;;;17.40;38.90;;;;;;6133480;23;20158;-77
2021/01/28 14:03:52;;;;;;;7.38;1.58;;;17.30;39.20;;;;;;6131694;23;20144;-77
2021/01/28 14:06:22;;;;;;;8.10;1.80;;;17.40;39.00;;;;;;6132545;23;20223;-76
2021/01/28 14:08:52;;;;;;;5.35;1.67;;;17.30;39.20;;;;;;6160164;23;20226;-80
2021/01/28 14:11:19;;;;;;;3.47;1.42;;;17.40;38.90;;;;;;6134290;23;20215;-76
2021/01/28 14:13:45;;;;;;;9.35;1.50;;;17.30;39.00;;;;;;6166456;23;20159;-79